MMTM/TAM METAR and TAF weather

Enter ICAO airport designator
Station Type Date Time Source
MMTM METAR 2019/04/23 03:50 UTC NOAA

MMTM 230350Z E12012KT 6SM SCT010 BKN200 24/23 A2994 RMK 8/108


Station Type Date Time Source
MMTM Decoded METAR 2019/04/23 03:50 UTC NOAA

Tampico / Gen Fj Mina, Mexico (MMTM) 22-17N 097-52W
Apr 22, 2019 - 11:50 PM EDT / 2019.04.23 0350 UTC
Visibility: 6 mile(s):0
Sky conditions: mostly cloudy
Temperature: 75 F (24 C)
Dew Point: 73 F (23 C)
Relative Humidity: 94%
Pressure (altimeter): 29.94 in. Hg (1013 hPa)
ob: MMTM 230350Z E12012KT 6SM SCT010 BKN200 24/23 A2994 RMK 8/108
cycle: 4

Station Type Date Time Source
MMTM TAF 2019/04/23 06:27 UTC NOAA

TAF MMTM 230425Z 2306/2406 12008KT 6SM HZ SCT010 SCT250
TEMPO 2311/2315 3SM BR HZ BKN012
FM231800 12014KT 6SM HZ SCT010 BKN080 BKN250
FM240500 12007KT 6SM HZ SCT010 SCT250

Example: see airport list